sensor_id;sensor_type;location;lat;lon;timestamp;P1;durP1;ratioP1;P2;durP2;ratioP2
80910;SDS011;70359;51.420;7.032;2023-07-24T00:01:27;1.4;;;1.3;;
80910;SDS011;70359;51.420;7.032;2023-07-24T00:03:56;2;;;1.5;;
80910;SDS011;70359;51.420;7.032;2023-07-24T00:06:21;2;;;1.5;;
80910;SDS011;70359;51.420;7.032;2023-07-24T00:08:42;1.6;;;1.5;;
80910;SDS011;70359;51.420;7.032;2023-07-24T00:11:10;1.6;;;1.5;;
80910;SDS011;70359;51.420;7.032;2023-07-24T00:13:32;2.4;;;1.7;;
80910;SDS011;70359;51.420;7.032;2023-07-24T00:15:57;2.4;;;1.7;;
80910;SDS011;70359;51.420;7.032;2023-07-24T00:18:35;2.1;;;1.8;;
80910;SDS011;70359;51.420;7.032;2023-07-24T00:20:47;2.1;;;1.8;;
80910;SDS011;70359;51.420;7.032;2023-07-24T00:23:12;2.1;;;1.8;;
80910;SDS011;70359;51.420;7.032;2023-07-24T00:25:37;1.4;;;1.3;;
80910;SDS011;70359;51.420;7.032;2023-07-24T00:28:02;1.4;;;1.3;;
80910;SDS011;70359;51.420;7.032;2023-07-24T00:30:27;1.7;;;1.6;;
80910;SDS011;70359;51.420;7.032;2023-07-24T00:32:56;1.7;;;1.6;;
80910;SDS011;70359;51.420;7.032;2023-07-24T00:35:21;1.2;;;1.1;;
80910;SDS011;70359;51.420;7.032;2023-07-24T00:37:42;1.2;;;1.1;;
80910;SDS011;70359;51.420;7.032;2023-07-24T00:40:08;1.5;;;1.4;;
80910;SDS011;70359;51.420;7.032;2023-07-24T00:42:32;1.5;;;1.4;;
80910;SDS011;70359;51.420;7.032;2023-07-24T00:44:57;1.3;;;1.2;;
80910;SDS011;70359;51.420;7.032;2023-07-24T00:47:26;1.3;;;1.2;;
80910;SDS011;70359;51.420;7.032;2023-07-24T00:49:48;2;;;1.6;;
80910;SDS011;70359;51.420;7.032;2023-07-24T00:52:13;2;;;1.6;;
80910;SDS011;70359;51.420;7.032;2023-07-24T00:54:38;2.4;;;1.4;;
80910;SDS011;70359;51.420;7.032;2023-07-24T00:57:03;2.4;;;1.4;;
80910;SDS011;70359;51.420;7.032;2023-07-24T00:59:32;1.5;;;1.3;;
80910;SDS011;70359;51.420;7.032;2023-07-24T01:01:52;1.5;;;1.3;;
80910;SDS011;70359;51.420;7.032;2023-07-24T01:04:18;1.5;;;1.3;;
80910;SDS011;70359;51.420;7.032;2023-07-24T01:06:42;1.5;;;1.3;;
80910;SDS011;70359;51.420;7.032;2023-07-24T01:09:07;1.6;;;1.4;;
80910;SDS011;70359;51.420;7.032;2023-07-24T01:11:36;1.6;;;1.4;;
80910;SDS011;70359;51.420;7.032;2023-07-24T01:14:04;1.5;;;1.4;;
80910;SDS011;70359;51.420;7.032;2023-07-24T01:16:26;1.5;;;1.4;;
80910;SDS011;70359;51.420;7.032;2023-07-24T01:18:49;1.8;;;1.6;;
80910;SDS011;70359;51.420;7.032;2023-07-24T01:21:20;1.8;;;1.6;;
80910;SDS011;70359;51.420;7.032;2023-07-24T01:23:45;1.4;;;1.3;;
80910;SDS011;70359;51.420;7.032;2023-07-24T01:26:03;1.4;;;1.3;;
80910;SDS011;70359;51.420;7.032;2023-07-24T01:28:28;1.9;;;1.5;;
80910;SDS011;70359;51.420;7.032;2023-07-24T01:30:53;1.9;;;1.5;;
80910;SDS011;70359;51.420;7.032;2023-07-24T01:33:22;1.9;;;1.5;;
80910;SDS011;70359;51.420;7.032;2023-07-24T01:35:43;1.4;;;1.3;;
80910;SDS011;70359;51.420;7.032;2023-07-24T01:38:12;1.4;;;1.3;;
80910;SDS011;70359;51.420;7.032;2023-07-24T01:40:33;1.3;;;1.2;;
80910;SDS011;70359;51.420;7.032;2023-07-24T01:42:58;1.3;;;1.2;;
80910;SDS011;70359;51.420;7.032;2023-07-24T01:45:23;1.5;;;1.4;;
80910;SDS011;70359;51.420;7.032;2023-07-24T01:47:48;1.5;;;1.4;;
80910;SDS011;70359;51.420;7.032;2023-07-24T01:50:13;1.7;;;1.5;;
80910;SDS011;70359;51.420;7.032;2023-07-24T01:52:38;1.7;;;1.5;;
80910;SDS011;70359;51.420;7.032;2023-07-24T01:55:03;1.4;;;1.3;;
80910;SDS011;70359;51.420;7.032;2023-07-24T01:57:28;1.4;;;1.3;;
80910;SDS011;70359;51.420;7.032;2023-07-24T01:59:53;1.8;;;1.5;;
80910;SDS011;70359;51.420;7.032;2023-07-24T02:02:18;1.8;;;1.5;;
80910;SDS011;70359;51.420;7.032;2023-07-24T02:04:43;2.4;;;2;;
80910;SDS011;70359;51.420;7.032;2023-07-24T02:07:08;2.4;;;2;;
80910;SDS011;70359;51.420;7.032;2023-07-24T02:09:33;1.4;;;1.3;;
80910;SDS011;70359;51.420;7.032;2023-07-24T02:12:02;1.4;;;1.3;;
80910;SDS011;70359;51.420;7.032;2023-07-24T02:14:23;2.6;;;1.6;;
80910;SDS011;70359;51.420;7.032;2023-07-24T02:16:48;2.6;;;1.6;;
80910;SDS011;70359;51.420;7.032;2023-07-24T02:19:13;1.6;;;1.5;;
80910;SDS011;70359;51.420;7.032;2023-07-24T02:21:38;1.6;;;1.5;;
80910;SDS011;70359;51.420;7.032;2023-07-24T02:24:03;1.9;;;1.7;;
80910;SDS011;70359;51.420;7.032;2023-07-24T02:26:32;1.9;;;1.7;;
80910;SDS011;70359;51.420;7.032;2023-07-24T02:28:57;1.8;;;1.7;;
80910;SDS011;70359;51.420;7.032;2023-07-24T02:31:18;1.8;;;1.7;;
80910;SDS011;70359;51.420;7.032;2023-07-24T02:33:43;2.1;;;1.9;;
80910;SDS011;70359;51.420;7.032;2023-07-24T02:36:08;2.1;;;1.9;;
80910;SDS011;70359;51.420;7.032;2023-07-24T02:38:33;2.5;;;1.8;;
80910;SDS011;70359;51.420;7.032;2023-07-24T02:40:58;2.5;;;1.8;;
80910;SDS011;70359;51.420;7.032;2023-07-24T02:43:23;2.5;;;1.8;;
80910;SDS011;70359;51.420;7.032;2023-07-24T02:45:48;2;;;1.6;;
80910;SDS011;70359;51.420;7.032;2023-07-24T02:48:17;2;;;1.6;;
80910;SDS011;70359;51.420;7.032;2023-07-24T02:50:38;3.4;;;2.5;;
80910;SDS011;70359;51.420;7.032;2023-07-24T02:53:05;3.4;;;2.5;;
80910;SDS011;70359;51.420;7.032;2023-07-24T02:55:28;1.7;;;1.6;;
80910;SDS011;70359;51.420;7.032;2023-07-24T02:57:53;1.7;;;1.6;;
80910;SDS011;70359;51.420;7.032;2023-07-24T03:00:18;2.1;;;1.8;;
80910;SDS011;70359;51.420;7.032;2023-07-24T03:02:47;2.1;;;1.8;;
80910;SDS011;70359;51.420;7.032;2023-07-24T03:05:12;1.6;;;1.4;;
80910;SDS011;70359;51.420;7.032;2023-07-24T03:07:33;1.6;;;1.4;;
80910;SDS011;70359;51.420;7.032;2023-07-24T03:10:02;2;;;1.8;;
80910;SDS011;70359;51.420;7.032;2023-07-24T03:12:23;2;;;1.8;;
80910;SDS011;70359;51.420;7.032;2023-07-24T03:14:48;3.3;;;1.9;;
80910;SDS011;70359;51.420;7.032;2023-07-24T03:17:13;3.3;;;1.9;;
80910;SDS011;70359;51.420;7.032;2023-07-24T03:19:38;2.1;;;1.9;;
80910;SDS011;70359;51.420;7.032;2023-07-24T03:22:03;2.1;;;1.9;;
80910;SDS011;70359;51.420;7.032;2023-07-24T03:24:28;2.1;;;1.9;;
80910;SDS011;70359;51.420;7.032;2023-07-24T03:26:53;2.1;;;1.9;;
80910;SDS011;70359;51.420;7.032;2023-07-24T03:29:18;1.9;;;1.8;;
80910;SDS011;70359;51.420;7.032;2023-07-24T03:31:43;1.9;;;1.8;;
80910;SDS011;70359;51.420;7.032;2023-07-24T03:34:08;2.2;;;2;;
80910;SDS011;70359;51.420;7.032;2023-07-24T03:36:33;2.2;;;2;;
80910;SDS011;70359;51.420;7.032;2023-07-24T03:38:58;1.9;;;1.7;;
80910;SDS011;70359;51.420;7.032;2023-07-24T03:41:23;1.9;;;1.7;;
80910;SDS011;70359;51.420;7.032;2023-07-24T03:43:48;1.9;;;1.7;;
80910;SDS011;70359;51.420;7.032;2023-07-24T03:46:13;1.9;;;1.7;;
80910;SDS011;70359;51.420;7.032;2023-07-24T03:48:40;1.8;;;1.7;;
80910;SDS011;70359;51.420;7.032;2023-07-24T03:51:03;1.8;;;1.7;;
80910;SDS011;70359;51.420;7.032;2023-07-24T03:53:28;1.8;;;1.7;;
80910;SDS011;70359;51.420;7.032;2023-07-24T03:55:53;2.3;;;1.8;;
80910;SDS011;70359;51.420;7.032;2023-07-24T03:58:18;2.3;;;1.8;;
80910;SDS011;70359;51.420;7.032;2023-07-24T04:00:43;1.7;;;1.6;;
80910;SDS011;70359;51.420;7.032;2023-07-24T04:03:08;1.7;;;1.6;;
80910;SDS011;70359;51.420;7.032;2023-07-24T04:05:33;1.8;;;1.7;;
80910;SDS011;70359;51.420;7.032;2023-07-24T04:08:02;1.8;;;1.7;;
80910;SDS011;70359;51.420;7.032;2023-07-24T04:10:23;2.5;;;2.2;;
80910;SDS011;70359;51.420;7.032;2023-07-24T04:12:48;2.5;;;2.2;;
80910;SDS011;70359;51.420;7.032;2023-07-24T04:15:13;1.9;;;1.8;;
80910;SDS011;70359;51.420;7.032;2023-07-24T04:17:38;1.9;;;1.8;;
80910;SDS011;70359;51.420;7.032;2023-07-24T04:20:04;1.7;;;1.4;;
80910;SDS011;70359;51.420;7.032;2023-07-24T04:22:29;1.7;;;1.4;;
80910;SDS011;70359;51.420;7.032;2023-07-24T04:24:53;1.9;;;1.8;;
80910;SDS011;70359;51.420;7.032;2023-07-24T04:27:18;1.9;;;1.8;;
80910;SDS011;70359;51.420;7.032;2023-07-24T04:29:43;4.2;;;1.7;;
80910;SDS011;70359;51.420;7.032;2023-07-24T04:32:08;4.2;;;1.7;;
80910;SDS011;70359;51.420;7.032;2023-07-24T04:34:37;4.3;;;2;;
80910;SDS011;70359;51.420;7.032;2023-07-24T04:36:58;4.3;;;2;;
80910;SDS011;70359;51.420;7.032;2023-07-24T04:39:23;1.9;;;1.6;;
80910;SDS011;70359;51.420;7.032;2023-07-24T04:41:48;1.9;;;1.6;;
80910;SDS011;70359;51.420;7.032;2023-07-24T04:44:13;2.7;;;2.1;;
80910;SDS011;70359;51.420;7.032;2023-07-24T04:46:38;2.7;;;2.1;;
80910;SDS011;70359;51.420;7.032;2023-07-24T04:49:03;6.6;;;2.4;;
80910;SDS011;70359;51.420;7.032;2023-07-24T04:51:28;6.6;;;2.4;;
80910;SDS011;70359;51.420;7.032;2023-07-24T04:53:59;2.8;;;2.1;;
80910;SDS011;70359;51.420;7.032;2023-07-24T04:56:18;2.8;;;2.1;;
80910;SDS011;70359;51.420;7.032;2023-07-24T04:58:43;2.8;;;2.1;;
80910;SDS011;70359;51.420;7.032;2023-07-24T05:01:12;1.7;;;1.5;;
80910;SDS011;70359;51.420;7.032;2023-07-24T05:03:33;1.7;;;1.5;;
80910;SDS011;70359;51.420;7.032;2023-07-24T05:05:58;2.5;;;2.1;;
80910;SDS011;70359;51.420;7.032;2023-07-24T05:08:23;2.5;;;2.1;;
80910;SDS011;70359;51.420;7.032;2023-07-24T05:10:53;2;;;1.8;;
80910;SDS011;70359;51.420;7.032;2023-07-24T05:13:13;2;;;1.8;;
80910;SDS011;70359;51.420;7.032;2023-07-24T05:15:38;2.5;;;2.3;;
80910;SDS011;70359;51.420;7.032;2023-07-24T05:18:03;2.5;;;2.3;;
80910;SDS011;70359;51.420;7.032;2023-07-24T05:20:28;1.9;;;1.8;;
80910;SDS011;70359;51.420;7.032;2023-07-24T05:22:53;1.9;;;1.8;;
80910;SDS011;70359;51.420;7.032;2023-07-24T05:25:18;2.4;;;2.2;;
80910;SDS011;70359;51.420;7.032;2023-07-24T05:27:43;2.4;;;2.2;;
80910;SDS011;70359;51.420;7.032;2023-07-24T05:30:09;3.6;;;2.3;;
80910;SDS011;70359;51.420;7.032;2023-07-24T05:32:33;3.6;;;2.3;;
80910;SDS011;70359;51.420;7.032;2023-07-24T05:34:58;2;;;1.8;;
80910;SDS011;70359;51.420;7.032;2023-07-24T05:37:23;2;;;1.8;;
80910;SDS011;70359;51.420;7.032;2023-07-24T05:39:48;2.8;;;2.3;;
80910;SDS011;70359;51.420;7.032;2023-07-24T05:42:13;2.8;;;2.3;;
80910;SDS011;70359;51.420;7.032;2023-07-24T05:44:38;2.1;;;1.9;;
80910;SDS011;70359;51.420;7.032;2023-07-24T05:47:03;2.1;;;1.9;;
80910;SDS011;70359;51.420;7.032;2023-07-24T05:49:28;2.1;;;1.9;;
80910;SDS011;70359;51.420;7.032;2023-07-24T05:51:57;2.1;;;1.9;;
80910;SDS011;70359;51.420;7.032;2023-07-24T05:54:18;2.2;;;2;;
80910;SDS011;70359;51.420;7.032;2023-07-24T05:56:43;2.2;;;2;;
80910;SDS011;70359;51.420;7.032;2023-07-24T05:59:08;4.8;;;2.2;;
80910;SDS011;70359;51.420;7.032;2023-07-24T06:01:33;4.8;;;2.2;;
80910;SDS011;70359;51.420;7.032;2023-07-24T06:03:58;2.3;;;2.1;;
80910;SDS011;70359;51.420;7.032;2023-07-24T06:06:23;2.3;;;2.1;;
80910;SDS011;70359;51.420;7.032;2023-07-24T06:08:48;2.3;;;2.1;;
80910;SDS011;70359;51.420;7.032;2023-07-24T06:11:17;2.2;;;2;;
80910;SDS011;70359;51.420;7.032;2023-07-24T06:13:38;2.2;;;2;;
80910;SDS011;70359;51.420;7.032;2023-07-24T06:16:03;2.2;;;2;;
80910;SDS011;70359;51.420;7.032;2023-07-24T06:18:28;2.2;;;2;;
80910;SDS011;70359;51.420;7.032;2023-07-24T06:20:55;2.6;;;2.3;;
80910;SDS011;70359;51.420;7.032;2023-07-24T06:23:18;2.6;;;2.3;;
80910;SDS011;70359;51.420;7.032;2023-07-24T06:25:43;2.4;;;2.2;;
80910;SDS011;70359;51.420;7.032;2023-07-24T06:28:08;2.4;;;2.2;;
80910;SDS011;70359;51.420;7.032;2023-07-24T06:30:37;2.4;;;2.2;;
80910;SDS011;70359;51.420;7.032;2023-07-24T06:32:58;2.4;;;2.2;;
80910;SDS011;70359;51.420;7.032;2023-07-24T06:35:23;2.4;;;2.2;;
80910;SDS011;70359;51.420;7.032;2023-07-24T06:37:52;2.4;;;2.2;;
80910;SDS011;70359;51.420;7.032;2023-07-24T06:40:13;2.5;;;2;;
80910;SDS011;70359;51.420;7.032;2023-07-24T06:42:38;2.5;;;2;;
80910;SDS011;70359;51.420;7.032;2023-07-24T06:45:04;2.5;;;2;;
80910;SDS011;70359;51.420;7.032;2023-07-24T06:47:32;2.5;;;2;;
80910;SDS011;70359;51.420;7.032;2023-07-24T06:49:53;2.7;;;2.4;;
80910;SDS011;70359;51.420;7.032;2023-07-24T06:52:18;2.7;;;2.4;;
80910;SDS011;70359;51.420;7.032;2023-07-24T06:54:43;2.2;;;2;;
80910;SDS011;70359;51.420;7.032;2023-07-24T06:57:08;2.2;;;2;;
80910;SDS011;70359;51.420;7.032;2023-07-24T06:59:33;2.5;;;2.3;;
80910;SDS011;70359;51.420;7.032;2023-07-24T07:01:58;2.5;;;2.3;;
80910;SDS011;70359;51.420;7.032;2023-07-24T07:04:27;2.3;;;2.1;;
80910;SDS011;70359;51.420;7.032;2023-07-24T07:06:48;2.3;;;2.1;;
80910;SDS011;70359;51.420;7.032;2023-07-24T07:09:14;2.7;;;2.4;;
80910;SDS011;70359;51.420;7.032;2023-07-24T07:11:43;2.7;;;2.4;;
80910;SDS011;70359;51.420;7.032;2023-07-24T07:14:04;2.1;;;1.9;;
80910;SDS011;70359;51.420;7.032;2023-07-24T07:16:28;2.1;;;1.9;;
80910;SDS011;70359;51.420;7.032;2023-07-24T07:18:53;2.1;;;1.9;;
80910;SDS011;70359;51.420;7.032;2023-07-24T07:21:22;3.8;;;2.2;;
80910;SDS011;70359;51.420;7.032;2023-07-24T07:23:43;3.8;;;2.2;;
80910;SDS011;70359;51.420;7.032;2023-07-24T07:26:08;1.8;;;1.7;;
80910;SDS011;70359;51.420;7.032;2023-07-24T07:28:33;1.8;;;1.7;;
80910;SDS011;70359;51.420;7.032;2023-07-24T07:31:02;1.9;;;1.7;;
80910;SDS011;70359;51.420;7.032;2023-07-24T07:33:23;1.9;;;1.7;;
80910;SDS011;70359;51.420;7.032;2023-07-24T07:35:48;1.9;;;1.8;;
80910;SDS011;70359;51.420;7.032;2023-07-24T07:38:17;1.9;;;1.8;;
80910;SDS011;70359;51.420;7.032;2023-07-24T07:40:40;2;;;1.8;;
80910;SDS011;70359;51.420;7.032;2023-07-24T07:43:03;2;;;1.8;;
80910;SDS011;70359;51.420;7.032;2023-07-24T07:45:32;2.2;;;2;;
80910;SDS011;70359;51.420;7.032;2023-07-24T07:47:53;2.2;;;2;;
80910;SDS011;70359;51.420;7.032;2023-07-24T07:50:18;2;;;1.8;;
80910;SDS011;70359;51.420;7.032;2023-07-24T07:52:43;2;;;1.8;;
80910;SDS011;70359;51.420;7.032;2023-07-24T07:55:09;2.2;;;2;;
80910;SDS011;70359;51.420;7.032;2023-07-24T07:57:33;2.2;;;2;;
80910;SDS011;70359;51.420;7.032;2023-07-24T07:59:59;2.9;;;2;;
80910;SDS011;70359;51.420;7.032;2023-07-24T08:02:23;2.9;;;2;;
80910;SDS011;70359;51.420;7.032;2023-07-24T08:04:48;1.9;;;1.7;;
80910;SDS011;70359;51.420;7.032;2023-07-24T08:07:13;1.9;;;1.7;;
80910;SDS011;70359;51.420;7.032;2023-07-24T08:09:38;2;;;1.7;;
80910;SDS011;70359;51.420;7.032;2023-07-24T08:12:04;2;;;1.7;;
80910;SDS011;70359;51.420;7.032;2023-07-24T08:14:32;2.9;;;2.1;;
80910;SDS011;70359;51.420;7.032;2023-07-24T08:16:53;2.9;;;2.1;;
80910;SDS011;70359;51.420;7.032;2023-07-24T08:19:18;1.9;;;1.7;;
80910;SDS011;70359;51.420;7.032;2023-07-24T08:21:43;1.9;;;1.7;;
80910;SDS011;70359;51.420;7.032;2023-07-24T08:24:13;1.7;;;1.6;;
80910;SDS011;70359;51.420;7.032;2023-07-24T08:26:34;1.7;;;1.6;;
80910;SDS011;70359;51.420;7.032;2023-07-24T08:28:59;1.7;;;1.6;;
80910;SDS011;70359;51.420;7.032;2023-07-24T08:31:24;3.9;;;1.6;;
80910;SDS011;70359;51.420;7.032;2023-07-24T08:33:49;3.9;;;1.6;;
80910;SDS011;70359;51.420;7.032;2023-07-24T08:36:14;1.7;;;1.6;;
80910;SDS011;70359;51.420;7.032;2023-07-24T08:38:39;1.7;;;1.6;;
80910;SDS011;70359;51.420;7.032;2023-07-24T08:41:05;1.7;;;1.6;;
80910;SDS011;70359;51.420;7.032;2023-07-24T08:43:29;1.7;;;1.6;;
80910;SDS011;70359;51.420;7.032;2023-07-24T08:45:54;1.8;;;1.7;;
80910;SDS011;70359;51.420;7.032;2023-07-24T08:48:20;1.8;;;1.7;;
80910;SDS011;70359;51.420;7.032;2023-07-24T08:50:44;2.1;;;1.8;;
80910;SDS011;70359;51.420;7.032;2023-07-24T08:53:09;2.1;;;1.8;;
80910;SDS011;70359;51.420;7.032;2023-07-24T08:55:38;2.2;;;1.6;;
80910;SDS011;70359;51.420;7.032;2023-07-24T08:57:59;2.2;;;1.6;;
80910;SDS011;70359;51.420;7.032;2023-07-24T09:00:24;2.1;;;1.9;;
80910;SDS011;70359;51.420;7.032;2023-07-24T09:02:53;2.1;;;1.9;;
80910;SDS011;70359;51.420;7.032;2023-07-24T09:05:14;1.7;;;1.6;;
80910;SDS011;70359;51.420;7.032;2023-07-24T09:07:43;1.7;;;1.6;;
80910;SDS011;70359;51.420;7.032;2023-07-24T09:10:04;1.8;;;1.6;;
80910;SDS011;70359;51.420;7.032;2023-07-24T09:12:29;1.8;;;1.6;;
80910;SDS011;70359;51.420;7.032;2023-07-24T09:15:05;1.8;;;1.5;;
80910;SDS011;70359;51.420;7.032;2023-07-24T09:17:19;1.8;;;1.5;;
80910;SDS011;70359;51.420;7.032;2023-07-24T09:19:44;1.9;;;1.7;;
80910;SDS011;70359;51.420;7.032;2023-07-24T09:22:13;1.9;;;1.7;;
80910;SDS011;70359;51.420;7.032;2023-07-24T09:24:34;1.3;;;1.2;;
80910;SDS011;70359;51.420;7.032;2023-07-24T09:26:59;1.3;;;1.2;;
80910;SDS011;70359;51.420;7.032;2023-07-24T09:29:29;1.8;;;1.3;;
80910;SDS011;70359;51.420;7.032;2023-07-24T09:31:49;1.8;;;1.3;;
80910;SDS011;70359;51.420;7.032;2023-07-24T09:34:18;1.6;;;1.4;;
80910;SDS011;70359;51.420;7.032;2023-07-24T09:36:40;1.6;;;1.4;;
80910;SDS011;70359;51.420;7.032;2023-07-24T09:39:04;1.6;;;1.4;;
80910;SDS011;70359;51.420;7.032;2023-07-24T09:41:30;1.9;;;1.4;;
80910;SDS011;70359;51.420;7.032;2023-07-24T09:44:05;1.9;;;1.4;;
80910;SDS011;70359;51.420;7.032;2023-07-24T09:46:19;1.2;;;1.1;;
80910;SDS011;70359;51.420;7.032;2023-07-24T09:48:44;1.2;;;1.1;;
80910;SDS011;70359;51.420;7.032;2023-07-24T09:51:11;1.6;;;1.3;;
80910;SDS011;70359;51.420;7.032;2023-07-24T09:53:43;1.6;;;1.3;;
80910;SDS011;70359;51.420;7.032;2023-07-24T09:56:01;1.5;;;1.3;;
80910;SDS011;70359;51.420;7.032;2023-07-24T09:58:25;1.5;;;1.3;;
80910;SDS011;70359;51.420;7.032;2023-07-24T10:00:49;1.6;;;1.5;;
80910;SDS011;70359;51.420;7.032;2023-07-24T10:03:14;1.6;;;1.5;;
80910;SDS011;70359;51.420;7.032;2023-07-24T10:05:39;1.2;;;1.1;;
80910;SDS011;70359;51.420;7.032;2023-07-24T10:08:04;1.2;;;1.1;;
80910;SDS011;70359;51.420;7.032;2023-07-24T10:10:33;1.2;;;1.1;;
80910;SDS011;70359;51.420;7.032;2023-07-24T10:12:54;1.2;;;1.1;;
80910;SDS011;70359;51.420;7.032;2023-07-24T10:15:19;2.5;;;1.4;;
80910;SDS011;70359;51.420;7.032;2023-07-24T10:17:44;2.5;;;1.4;;
80910;SDS011;70359;51.420;7.032;2023-07-24T10:20:10;1.7;;;1.5;;
80910;SDS011;70359;51.420;7.032;2023-07-24T10:22:35;1.7;;;1.5;;
80910;SDS011;70359;51.420;7.032;2023-07-24T10:25:03;1.7;;;1.5;;
80910;SDS011;70359;51.420;7.032;2023-07-24T10:27:26;1.7;;;1.5;;
80910;SDS011;70359;51.420;7.032;2023-07-24T10:30:02;2;;;1.6;;
80910;SDS011;70359;51.420;7.032;2023-07-24T10:32:20;2;;;1.6;;
80910;SDS011;70359;51.420;7.032;2023-07-24T10:34:42;1.9;;;1.8;;
80910;SDS011;70359;51.420;7.032;2023-07-24T10:37:06;1.9;;;1.8;;
80910;SDS011;70359;51.420;7.032;2023-07-24T10:39:41;1.7;;;1.6;;
80910;SDS011;70359;51.420;7.032;2023-07-24T10:42:09;1.7;;;1.6;;
80910;SDS011;70359;51.420;7.032;2023-07-24T10:44:34;1.6;;;1.5;;
80910;SDS011;70359;51.420;7.032;2023-07-24T10:46:48;1.6;;;1.5;;
80910;SDS011;70359;51.420;7.032;2023-07-24T10:49:09;1.6;;;1.5;;
80910;SDS011;70359;51.420;7.032;2023-07-24T10:51:34;1.7;;;1.6;;
80910;SDS011;70359;51.420;7.032;2023-07-24T10:53:59;1.7;;;1.6;;
80910;SDS011;70359;51.420;7.032;2023-07-24T10:56:24;2.1;;;1.8;;
80910;SDS011;70359;51.420;7.032;2023-07-24T10:58:53;2.1;;;1.8;;
80910;SDS011;70359;51.420;7.032;2023-07-24T11:01:14;2;;;1.8;;
80910;SDS011;70359;51.420;7.032;2023-07-24T11:03:40;2;;;1.8;;
80910;SDS011;70359;51.420;7.032;2023-07-24T11:06:04;2.1;;;1.9;;
80910;SDS011;70359;51.420;7.032;2023-07-24T11:08:29;2.1;;;1.9;;
80910;SDS011;70359;51.420;7.032;2023-07-24T11:10:55;1.6;;;1.5;;
80910;SDS011;70359;51.420;7.032;2023-07-24T11:13:23;1.6;;;1.5;;
80910;SDS011;70359;51.420;7.032;2023-07-24T11:15:44;1.8;;;1.7;;
80910;SDS011;70359;51.420;7.032;2023-07-24T11:18:09;1.8;;;1.7;;
80910;SDS011;70359;51.420;7.032;2023-07-24T11:20:43;2.9;;;2.3;;
80910;SDS011;70359;51.420;7.032;2023-07-24T11:23:05;2.9;;;2.3;;
80910;SDS011;70359;51.420;7.032;2023-07-24T11:25:24;2.2;;;2;;
80910;SDS011;70359;51.420;7.032;2023-07-24T11:27:49;2.2;;;2;;
80910;SDS011;70359;51.420;7.032;2023-07-24T11:30:19;2.8;;;1.8;;
80910;SDS011;70359;51.420;7.032;2023-07-24T11:32:39;2.8;;;1.8;;
80910;SDS011;70359;51.420;7.032;2023-07-24T11:35:08;1.6;;;1.5;;
80910;SDS011;70359;51.420;7.032;2023-07-24T11:37:29;1.6;;;1.5;;
80910;SDS011;70359;51.420;7.032;2023-07-24T11:40:02;2;;;1.7;;
80910;SDS011;70359;51.420;7.032;2023-07-24T11:42:19;2;;;1.7;;
80910;SDS011;70359;51.420;7.032;2023-07-24T11:44:48;2.3;;;1.8;;
80910;SDS011;70359;51.420;7.032;2023-07-24T11:47:09;2.3;;;1.8;;
80910;SDS011;70359;51.420;7.032;2023-07-24T11:49:34;3;;;2;;
80910;SDS011;70359;51.420;7.032;2023-07-24T11:52:03;3;;;2;;
80910;SDS011;70359;51.420;7.032;2023-07-24T11:54:24;2.3;;;1.9;;
80910;SDS011;70359;51.420;7.032;2023-07-24T11:56:49;2.3;;;1.9;;
80910;SDS011;70359;51.420;7.032;2023-07-24T11:59:15;2.3;;;1.9;;
80910;SDS011;70359;51.420;7.032;2023-07-24T12:01:39;1.7;;;1.4;;
80910;SDS011;70359;51.420;7.032;2023-07-24T12:04:04;1.7;;;1.4;;
80910;SDS011;70359;51.420;7.032;2023-07-24T12:06:30;1.9;;;1.3;;
80910;SDS011;70359;51.420;7.032;2023-07-24T12:09:02;1.9;;;1.3;;
80910;SDS011;70359;51.420;7.032;2023-07-24T12:11:19;1.5;;;1.2;;
80910;SDS011;70359;51.420;7.032;2023-07-24T12:13:44;1.5;;;1.2;;
80910;SDS011;70359;51.420;7.032;2023-07-24T12:16:13;0.9;;;0.8;;
80910;SDS011;70359;51.420;7.032;2023-07-24T12:18:34;0.9;;;0.8;;
80910;SDS011;70359;51.420;7.032;2023-07-24T12:20:59;2.4;;;1.2;;
80910;SDS011;70359;51.420;7.032;2023-07-24T12:23:24;2.4;;;1.2;;
80910;SDS011;70359;51.420;7.032;2023-07-24T12:25:49;1;;;0.8;;
80910;SDS011;70359;51.420;7.032;2023-07-24T12:28:14;1;;;0.8;;
80910;SDS011;70359;51.420;7.032;2023-07-24T12:30:39;0.7;;;0.7;;
80910;SDS011;70359;51.420;7.032;2023-07-24T12:33:04;0.7;;;0.7;;
80910;SDS011;70359;51.420;7.032;2023-07-24T12:35:33;0.8;;;0.8;;
80910;SDS011;70359;51.420;7.032;2023-07-24T12:37:54;0.8;;;0.8;;
80910;SDS011;70359;51.420;7.032;2023-07-24T12:40:23;1.1;;;0.9;;
80910;SDS011;70359;51.420;7.032;2023-07-24T12:42:48;1.1;;;0.9;;
80910;SDS011;70359;51.420;7.032;2023-07-24T12:45:09;1;;;0.9;;
80910;SDS011;70359;51.420;7.032;2023-07-24T12:47:38;1;;;0.9;;
80910;SDS011;70359;51.420;7.032;2023-07-24T12:50:00;0.8;;;0.8;;
80910;SDS011;70359;51.420;7.032;2023-07-24T12:52:24;0.8;;;0.8;;
80910;SDS011;70359;51.420;7.032;2023-07-24T12:55:01;0.8;;;0.7;;
80910;SDS011;70359;51.420;7.032;2023-07-24T12:57:14;0.8;;;0.7;;
80910;SDS011;70359;51.420;7.032;2023-07-24T12:59:39;0.8;;;0.8;;
80910;SDS011;70359;51.420;7.032;2023-07-24T13:02:04;0.8;;;0.8;;
80910;SDS011;70359;51.420;7.032;2023-07-24T13:04:33;0.6;;;0.6;;
80910;SDS011;70359;51.420;7.032;2023-07-24T13:06:54;0.6;;;0.6;;
80910;SDS011;70359;51.420;7.032;2023-07-24T13:09:19;0.6;;;0.6;;
80910;SDS011;70359;51.420;7.032;2023-07-24T13:11:44;0.6;;;0.6;;
80910;SDS011;70359;51.420;7.032;2023-07-24T13:14:09;0.6;;;0.6;;
80910;SDS011;70359;51.420;7.032;2023-07-24T13:16:34;0.8;;;0.8;;
80910;SDS011;70359;51.420;7.032;2023-07-24T13:18:59;0.8;;;0.8;;
80910;SDS011;70359;51.420;7.032;2023-07-24T13:21:24;1;;;0.9;;
80910;SDS011;70359;51.420;7.032;2023-07-24T13:23:49;1;;;0.9;;
80910;SDS011;70359;51.420;7.032;2023-07-24T13:26:15;1.2;;;1.1;;
80910;SDS011;70359;51.420;7.032;2023-07-24T13:28:39;1.2;;;1.1;;
80910;SDS011;70359;51.420;7.032;2023-07-24T13:31:14;0.9;;;0.9;;
80910;SDS011;70359;51.420;7.032;2023-07-24T13:33:29;0.9;;;0.9;;
80910;SDS011;70359;51.420;7.032;2023-07-24T13:35:58;0.8;;;0.8;;
80910;SDS011;70359;51.420;7.032;2023-07-24T13:38:19;0.8;;;0.8;;
80910;SDS011;70359;51.420;7.032;2023-07-24T13:40:44;1.2;;;1.1;;
80910;SDS011;70359;51.420;7.032;2023-07-24T13:43:09;1.2;;;1.1;;
80910;SDS011;70359;51.420;7.032;2023-07-24T13:45:34;1.1;;;1;;
80910;SDS011;70359;51.420;7.032;2023-07-24T13:48:00;1.1;;;1;;
80910;SDS011;70359;51.420;7.032;2023-07-24T13:50:24;1.1;;;1;;
80910;SDS011;70359;51.420;7.032;2023-07-24T13:52:49;1.1;;;1;;
80910;SDS011;70359;51.420;7.032;2023-07-24T13:55:14;1.8;;;1.5;;
80910;SDS011;70359;51.420;7.032;2023-07-24T13:57:39;1.8;;;1.5;;
80910;SDS011;70359;51.420;7.032;2023-07-24T14:00:05;2;;;1.8;;
80910;SDS011;70359;51.420;7.032;2023-07-24T14:02:29;2;;;1.8;;
80910;SDS011;70359;51.420;7.032;2023-07-24T14:04:54;1.7;;;1.6;;
80910;SDS011;70359;51.420;7.032;2023-07-24T14:07:19;1.7;;;1.6;;
80910;SDS011;70359;51.420;7.032;2023-07-24T14:09:44;1.7;;;1.6;;
80910;SDS011;70359;51.420;7.032;2023-07-24T14:12:14;1.7;;;1.6;;
80910;SDS011;70359;51.420;7.032;2023-07-24T14:14:38;2.5;;;1.8;;
80910;SDS011;70359;51.420;7.032;2023-07-24T14:16:59;2.5;;;1.8;;
80910;SDS011;70359;51.420;7.032;2023-07-24T14:19:24;2.5;;;1.8;;
80910;SDS011;70359;51.420;7.032;2023-07-24T14:21:50;2.4;;;1.9;;
80910;SDS011;70359;51.420;7.032;2023-07-24T14:24:18;2.4;;;1.9;;
80910;SDS011;70359;51.420;7.032;2023-07-24T14:26:43;2.1;;;1.9;;
80910;SDS011;70359;51.420;7.032;2023-07-24T14:29:04;2.1;;;1.9;;
80910;SDS011;70359;51.420;7.032;2023-07-24T14:31:33;2.3;;;2.1;;
80910;SDS011;70359;51.420;7.032;2023-07-24T14:33:54;2.3;;;2.1;;
80910;SDS011;70359;51.420;7.032;2023-07-24T14:36:19;3;;;2.7;;
80910;SDS011;70359;51.420;7.032;2023-07-24T14:38:48;3;;;2.7;;
80910;SDS011;70359;51.420;7.032;2023-07-24T14:41:09;2.5;;;2.2;;
80910;SDS011;70359;51.420;7.032;2023-07-24T14:43:34;2.5;;;2.2;;
80910;SDS011;70359;51.420;7.032;2023-07-24T14:45:59;2.7;;;2.5;;
80910;SDS011;70359;51.420;7.032;2023-07-24T14:48:28;2.7;;;2.5;;
80910;SDS011;70359;51.420;7.032;2023-07-24T14:50:53;2.1;;;2;;
80910;SDS011;70359;51.420;7.032;2023-07-24T14:53:14;2.1;;;2;;
80910;SDS011;70359;51.420;7.032;2023-07-24T14:55:39;2.4;;;2.2;;
80910;SDS011;70359;51.420;7.032;2023-07-24T14:58:04;2.4;;;2.2;;
80910;SDS011;70359;51.420;7.032;2023-07-24T15:00:31;4.4;;;2.4;;
80910;SDS011;70359;51.420;7.032;2023-07-24T15:02:54;4.4;;;2.4;;
80910;SDS011;70359;51.420;7.032;2023-07-24T15:05:20;1.4;;;1.3;;